Please verify the date and time on each image to ensure they are up-to-date.  Not to be used for flight planning purposes.

**Note**- If you are unable to view the images below, please switch to an alternate browser such as Internet Explorer. We are sorry for the inconvenience and are in the process of resolving this issue.

Half Moon Bay Airport North

Half Moon Bay Airport North Webcam

Half Moon Bay Airport South

 

Half Moon Bay Airport South Webcam

KHAF METAR 031455Z AUTO 13006KT 8SM BKN020 OVC035 10/08 A3019 RMK AO2

KSFO TAF 031454Z 0315/0418 17011KT P6SM SCT030 BKN040 FM031800 17015G25KT P6SM VCSH BKN025 OVC035 FM032100 18018G28KT P6SM -RA OVC030 FM040200 18014KT 5SM -RA BR OVC020 FM040800 19008KT 5SM -RA BR OVC015 FM041300 20005KT P6SM OVC025

KSJC TAF 031139Z 0312/0412 12008KT P6SM BKN035 OVC040 FM031800 13012G18KT P6SM VCSH BKN030 OVC050 FM040100 13012KT 6SM -RA BR OVC030 FM041000 13006KT P6SM VCSH OVC030